Time;durP1;ratioP1;P1;durP2;ratioP2;P2;SDS_P1;SDS_P2;PMS_P1;PMS_P2;Temp;Humidity;BMP_temperature;BMP_pressure;BME280_temperature;BME280_humidity;BME280_pressure;Samples;Min_cycle;Max_cycle;Signal;HPM_P1;HPM_P2
2022/02/18 00:01:09;;;;;;;29.00;6.88;;;9.30;99.90;;;;;;4999155;28;20075;-62
2022/02/18 00:03:40;;;;;;;48.08;7.30;;;9.30;99.90;;;;;;4996280;28;20799;-62
2022/02/18 00:06:07;;;;;;;36.83;7.10;;;9.30;99.90;;;;;;4998057;28;20050;-64
2022/02/18 00:08:34;;;;;;;34.75;5.05;;;9.40;99.90;;;;;;4997321;28;20042;-62
2022/02/18 00:11:01;;;;;;;31.40;6.18;;;9.40;99.90;;;;;;4998614;28;20121;-60
2022/02/18 00:13:28;;;;;;;30.35;5.43;;;9.30;99.90;;;;;;4993786;28;20073;-61
2022/02/18 00:15:55;;;;;;;34.78;7.82;;;9.40;99.90;;;;;;4987669;28;20156;-62
2022/02/18 00:18:22;;;;;;;35.10;6.25;;;9.40;99.90;;;;;;4997167;28;20050;-61
2022/02/18 00:20:48;;;;;;;52.83;7.30;;;9.30;99.90;;;;;;5001267;28;20144;-61
2022/02/18 00:23:15;;;;;;;36.72;6.13;;;9.40;99.90;;;;;;5004281;28;20600;-61
2022/02/18 00:25:42;;;;;;;44.08;6.97;;;9.30;99.90;;;;;;5003603;28;20089;-62
2022/02/18 00:28:09;;;;;;;47.30;8.07;;;9.40;99.90;;;;;;5000787;28;20125;-62
2022/02/18 00:30:35;;;;;;;28.63;6.63;;;9.40;99.90;;;;;;4999180;28;20080;-60
2022/02/18 00:33:02;;;;;;;41.30;7.28;;;9.40;99.90;;;;;;5006056;28;20060;-61
2022/02/18 00:35:29;;;;;;;44.70;6.45;;;9.40;99.90;;;;;;5004109;28;20041;-61
2022/02/18 00:37:56;;;;;;;46.50;7.38;;;9.40;99.90;;;;;;5009386;28;20056;-61
2022/02/18 00:40:24;;;;;;;46.58;8.27;;;9.40;99.90;;;;;;5004244;28;20480;-61
2022/02/18 00:42:51;;;;;;;37.42;6.90;;;9.40;99.90;;;;;;5009110;28;20144;-61
2022/02/18 00:45:18;;;;;;;34.22;6.15;;;9.40;99.90;;;;;;4976316;28;20803;-61
2022/02/18 00:47:46;;;;;;;41.30;6.90;;;9.40;99.90;;;;;;5008769;28;20069;-61
2022/02/18 00:50:13;;;;;;;43.72;6.43;;;9.40;99.90;;;;;;5009016;28;20046;-59
2022/02/18 00:52:40;;;;;;;43.30;6.55;;;9.40;99.90;;;;;;5008960;28;20491;-61
2022/02/18 00:55:07;;;;;;;51.97;9.05;;;9.40;99.90;;;;;;4999878;28;20061;-61
2022/02/18 00:57:34;;;;;;;44.67;7.68;;;9.40;99.90;;;;;;4976184;28;20046;-61
2022/02/18 01:00:03;;;;;;;41.10;7.03;;;9.50;99.90;;;;;;4993466;28;20186;-61
2022/02/18 01:02:33;;;;;;;42.38;7.90;;;9.50;99.90;;;;;;5003928;28;20057;-61
2022/02/18 01:04:59;;;;;;;64.85;7.97;;;9.50;99.90;;;;;;5006188;28;20042;-61
2022/02/18 01:07:26;;;;;;;49.75;7.22;;;9.50;99.90;;;;;;4998483;28;20153;-61
2022/02/18 01:09:54;;;;;;;41.38;6.75;;;9.50;99.90;;;;;;4995227;28;20774;-61
2022/02/18 01:12:22;;;;;;;51.78;9.18;;;9.40;99.90;;;;;;4983791;28;20777;-61
2022/02/18 01:14:49;;;;;;;41.65;6.70;;;9.40;99.90;;;;;;4989702;28;20068;-61
2022/02/18 01:17:16;;;;;;;32.10;6.25;;;9.50;99.90;;;;;;5001220;28;20074;-61
2022/02/18 01:19:43;;;;;;;51.05;7.97;;;9.50;99.90;;;;;;4974551;28;20054;-60
2022/02/18 01:22:10;;;;;;;49.58;9.25;;;9.50;99.90;;;;;;5001120;28;20123;-61
2022/02/18 01:24:37;;;;;;;42.35;6.90;;;9.50;99.90;;;;;;4990588;28;20050;-61
2022/02/18 01:27:07;;;;;;;47.70;7.70;;;9.50;99.90;;;;;;4997980;28;20045;-61
2022/02/18 01:29:39;;;;;;;49.92;7.50;;;9.50;99.90;;;;;;5010024;28;20452;-61
2022/02/18 01:32:09;;;;;;;51.97;8.68;;;9.50;99.90;;;;;;4998320;28;20560;-61
2022/02/18 01:34:36;;;;;;;43.13;7.45;;;9.50;99.90;;;;;;4976482;28;20082;-61
2022/02/18 01:37:04;;;;;;;50.63;7.72;;;9.50;99.90;;;;;;4994479;28;20078;-61
2022/02/18 01:39:31;;;;;;;39.17;9.65;;;9.50;99.90;;;;;;5010322;28;20085;-61
2022/02/18 01:41:58;;;;;;;46.13;8.30;;;9.50;99.90;;;;;;4988124;28;20524;-61
2022/02/18 01:44:40;;;;;;;52.60;8.20;;;9.60;99.90;;;;;;4991656;28;20085;-62
2022/02/18 01:47:10;;;;;;;43.65;8.40;;;9.60;99.90;;;;;;4994026;28;20573;-61
2022/02/18 01:49:37;;;;;;;50.67;6.90;;;9.60;99.90;;;;;;4992282;28;20132;-61
2022/02/18 01:52:04;;;;;;;42.70;7.60;;;9.50;99.90;;;;;;5005188;28;20294;-64
2022/02/18 01:54:30;;;;;;;55.60;6.85;;;9.50;99.90;;;;;;4976319;28;20454;-60
2022/02/18 01:56:57;;;;;;;55.00;7.90;;;9.50;99.90;;;;;;4993850;28;20136;-61
2022/02/18 01:59:26;;;;;;;38.08;6.18;;;9.50;99.90;;;;;;5004422;28;20187;-61
2022/02/18 02:01:53;;;;;;;36.10;5.80;;;9.40;99.90;;;;;;5004820;28;20100;-61
2022/02/18 02:04:20;;;;;;;34.00;5.65;;;9.30;99.90;;;;;;4989906;28;20089;-60
2022/02/18 02:06:47;;;;;;;31.27;5.28;;;9.30;99.90;;;;;;4989224;28;20129;-61
2022/02/18 02:09:14;;;;;;;32.50;5.25;;;9.20;99.90;;;;;;4972460;28;20129;-61
2022/02/18 02:11:41;;;;;;;30.15;4.97;;;9.10;99.90;;;;;;4989653;28;20141;-61
2022/02/18 02:14:07;;;;;;;26.02;4.53;;;9.10;99.90;;;;;;4989471;28;20092;-61
2022/02/18 02:16:34;;;;;;;36.65;4.85;;;9.00;99.90;;;;;;4989749;28;20054;-61
2022/02/18 02:19:01;;;;;;;21.50;3.83;;;9.00;99.90;;;;;;4643108;28;10000281;-61
2022/02/18 02:21:28;;;;;;;22.00;3.50;;;9.00;99.90;;;;;;4986358;28;20145;-60
2022/02/18 02:23:56;;;;;;;29.38;5.90;;;8.90;99.90;;;;;;4988064;28;20046;-61
2022/02/18 02:26:23;;;;;;;24.52;6.47;;;8.90;99.90;;;;;;4989644;28;20145;-60
2022/02/18 02:28:50;;;;;;;31.30;4.43;;;8.80;99.90;;;;;;4989193;28;20141;-61
2022/02/18 02:31:17;;;;;;;25.83;5.22;;;8.90;99.90;;;;;;4989506;28;20069;-61
2022/02/18 02:33:43;;;;;;;28.02;5.20;;;8.80;99.90;;;;;;4971823;28;20536;-61
2022/02/18 02:36:10;;;;;;;21.40;3.95;;;8.80;99.90;;;;;;4989282;28;20145;-61
2022/02/18 02:38:37;;;;;;;26.20;5.03;;;8.80;99.90;;;;;;4989190;28;20476;-61
2022/02/18 02:41:03;;;;;;;18.02;3.55;;;8.80;99.90;;;;;;4989364;28;20137;-61
2022/02/18 02:43:30;;;;;;;17.45;4.13;;;8.70;99.90;;;;;;4988859;28;20588;-60
2022/02/18 02:45:57;;;;;;;11.55;3.08;;;8.70;99.90;;;;;;4989274;28;20141;-60
2022/02/18 02:48:24;;;;;;;27.88;4.55;;;8.70;99.90;;;;;;4985879;28;20077;-61
2022/02/18 02:50:50;;;;;;;17.52;4.00;;;8.70;99.90;;;;;;4987228;28;20082;-60
2022/02/18 02:53:17;;;;;;;12.52;2.35;;;8.70;99.90;;;;;;4987553;28;20098;-61
2022/02/18 02:55:44;;;;;;;11.07;1.65;;;8.70;99.90;;;;;;4988590;28;20104;-60
2022/02/18 02:58:11;;;;;;;8.05;1.70;;;8.60;99.90;;;;;;4955368;28;20081;-60
2022/02/18 03:00:38;;;;;;;6.43;2.00;;;8.60;99.90;;;;;;4989085;28;20103;-59
2022/02/18 03:03:04;;;;;;;5.15;1.10;;;8.60;99.90;;;;;;4997334;28;20104;-62
2022/02/18 03:05:31;;;;;;;7.30;1.25;;;8.50;99.90;;;;;;4997761;28;20061;-59
2022/02/18 03:07:58;;;;;;;6.05;1.50;;;8.50;99.90;;;;;;5008686;28;20049;-59
2022/02/18 03:10:25;;;;;;;4.03;1.08;;;8.50;99.90;;;;;;5000909;28;20128;-61
2022/02/18 03:12:52;;;;;;;6.05;1.00;;;8.50;99.90;;;;;;4988815;28;20054;-61
2022/02/18 03:15:18;;;;;;;8.45;1.42;;;8.60;99.90;;;;;;4993120;28;20050;-61
2022/02/18 03:17:46;;;;;;;3.17;0.80;;;8.60;99.90;;;;;;5008370;28;20501;-61
2022/02/18 03:20:14;;;;;;;4.72;0.82;;;8.60;99.90;;;;;;5003719;28;20092;-60
2022/02/18 03:22:41;;;;;;;6.78;0.93;;;8.60;99.90;;;;;;4989710;28;20145;-60
2022/02/18 03:25:08;;;;;;;2.40;0.82;;;8.60;99.90;;;;;;4996964;28;20073;-61
2022/02/18 03:27:37;;;;;;;7.45;2.22;;;8.60;99.90;;;;;;4974939;28;20490;-61
2022/02/18 03:30:07;;;;;;;4.80;1.15;;;8.60;99.90;;;;;;4992364;28;20038;-61
2022/02/18 03:32:34;;;;;;;3.13;1.02;;;8.60;99.90;;;;;;5003106;28;20049;-61
2022/02/18 03:35:01;;;;;;;2.08;0.60;;;8.60;99.90;;;;;;4992515;28;20046;-61
2022/02/18 03:37:27;;;;;;;4.85;0.60;;;8.70;99.90;;;;;;5001024;28;20539;-60
2022/02/18 03:39:54;;;;;;;1.92;0.52;;;8.70;99.90;;;;;;5004162;28;20088;-61
2022/02/18 03:42:21;;;;;;;0.80;0.40;;;8.70;99.90;;;;;;4997638;28;20410;-61
2022/02/18 03:44:48;;;;;;;4.45;0.90;;;8.70;99.90;;;;;;4991675;28;20073;-62
2022/02/18 03:47:14;;;;;;;3.05;0.70;;;8.70;99.90;;;;;;4996772;28;20125;-65
2022/02/18 03:49:41;;;;;;;1.70;0.70;;;8.80;99.90;;;;;;5007097;28;20132;-62
2022/02/18 03:52:08;;;;;;;2.08;0.50;;;8.80;99.90;;;;;;4998981;28;20134;-62
2022/02/18 03:54:34;;;;;;;1.17;0.75;;;8.90;99.90;;;;;;4988747;28;20097;-62
2022/02/18 03:57:01;;;;;;;3.25;0.70;;;8.90;99.90;;;;;;5000598;28;20046;-62
2022/02/18 03:59:28;;;;;;;1.42;0.65;;;8.90;99.90;;;;;;4988820;28;20129;-62
2022/02/18 04:01:55;;;;;;;2.63;0.77;;;8.90;99.90;;;;;;4992224;28;20141;-62
2022/02/18 04:04:22;;;;;;;3.17;0.80;;;9.00;99.90;;;;;;5025828;28;20578;-62
2022/02/18 04:06:49;;;;;;;2.85;0.70;;;9.10;99.90;;;;;;5000994;28;20090;-62
2022/02/18 04:09:15;;;;;;;4.20;0.93;;;9.10;99.90;;;;;;5007107;28;20107;-62
2022/02/18 04:11:42;;;;;;;1.48;0.45;;;9.20;99.90;;;;;;5008139;28;20384;-62
2022/02/18 04:14:09;;;;;;;3.50;0.90;;;9.30;99.90;;;;;;5007983;28;20093;-62
2022/02/18 04:16:36;;;;;;;2.60;0.73;;;9.40;99.90;;;;;;5003628;28;20132;-62
2022/02/18 04:19:02;;;;;;;3.42;1.05;;;9.50;99.90;;;;;;4993834;28;20150;-59
2022/02/18 04:21:29;;;;;;;1.77;0.60;;;9.60;99.90;;;;;;4988491;28;20097;-60
2022/02/18 04:23:56;;;;;;;6.22;1.67;;;9.70;99.90;;;;;;4988420;28;20573;-60
2022/02/18 04:26:23;;;;;;;2.90;0.88;;;9.70;99.90;;;;;;4988066;28;20141;-60
2022/02/18 04:28:50;;;;;;;5.05;1.38;;;9.80;99.90;;;;;;4988368;28;20545;-60
2022/02/18 04:31:17;;;;;;;1.60;0.57;;;9.90;99.90;;;;;;4993279;28;20584;-60
2022/02/18 04:33:44;;;;;;;2.00;0.60;;;9.90;99.90;;;;;;4984677;28;20088;-61
2022/02/18 04:36:11;;;;;;;4.40;1.00;;;10.00;99.90;;;;;;5009721;28;20084;-61
2022/02/18 04:38:39;;;;;;;2.78;0.60;;;10.10;99.90;;;;;;5000271;28;20516;-60
2022/02/18 04:41:07;;;;;;;2.72;0.80;;;10.10;99.90;;;;;;5010842;28;20050;-60
2022/02/18 04:43:34;;;;;;;3.58;0.68;;;10.20;99.90;;;;;;5003789;28;20082;-60
2022/02/18 04:46:01;;;;;;;4.78;0.70;;;10.20;99.90;;;;;;4991643;28;20126;-61
2022/02/18 04:48:28;;;;;;;5.43;0.70;;;10.20;99.90;;;;;;4995935;28;20563;-61
2022/02/18 04:50:54;;;;;;;2.72;1.20;;;10.30;99.90;;;;;;5011159;28;20128;-60
2022/02/18 04:53:35;;;;;;;1.92;0.70;;;10.30;99.90;;;;;;4990922;28;20107;-61
2022/02/18 04:56:04;;;;;;;7.68;1.73;;;10.40;99.90;;;;;;4991481;28;20496;-61
2022/02/18 04:58:31;;;;;;;5.63;1.10;;;10.40;99.90;;;;;;4995237;28;20129;-61
2022/02/18 05:00:57;;;;;;;3.85;1.15;;;10.50;99.90;;;;;;5009712;28;20082;-60
2022/02/18 05:03:25;;;;;;;2.22;0.77;;;10.50;99.90;;;;;;5010043;28;20045;-61
2022/02/18 05:05:51;;;;;;;6.30;1.48;;;10.50;99.90;;;;;;4977424;28;20133;-61
2022/02/18 05:08:18;;;;;;;2.90;1.08;;;10.50;99.90;;;;;;4977404;28;20149;-61
2022/02/18 05:10:45;;;;;;;3.72;0.80;;;10.60;99.90;;;;;;5004972;28;20136;-61
2022/02/18 05:13:12;;;;;;;5.55;1.00;;;10.60;99.90;;;;;;4988790;28;20129;-61
2022/02/18 05:15:38;;;;;;;2.83;0.80;;;10.60;99.90;;;;;;4998980;28;20168;-61
2022/02/18 05:18:05;;;;;;;2.75;0.90;;;10.60;99.90;;;;;;4994455;28;20128;-61
2022/02/18 05:20:32;;;;;;;3.58;0.80;;;10.70;99.90;;;;;;5000225;28;20487;-61
2022/02/18 05:22:58;;;;;;;2.35;0.60;;;10.70;99.90;;;;;;5007903;28;20133;-61
2022/02/18 05:25:26;;;;;;;2.40;0.60;;;10.70;99.90;;;;;;4984435;28;20121;-61
2022/02/18 05:27:52;;;;;;;2.22;0.65;;;10.70;99.90;;;;;;4991039;28;20078;-60
2022/02/18 05:30:20;;;;;;;7.80;1.30;;;10.80;99.90;;;;;;4998460;28;20088;-61
2022/02/18 05:32:50;;;;;;;3.25;0.65;;;10.80;99.90;;;;;;5010068;28;20053;-61
2022/02/18 05:35:16;;;;;;;3.97;0.70;;;10.80;99.90;;;;;;4985173;28;20073;-61
2022/02/18 05:37:43;;;;;;;4.85;0.85;;;10.80;99.90;;;;;;4990619;28;20046;-61
2022/02/18 05:40:10;;;;;;;3.53;0.75;;;10.80;99.90;;;;;;4990178;28;20050;-61
2022/02/18 05:42:38;;;;;;;3.90;0.82;;;10.80;99.90;;;;;;4989247;28;20492;-60
2022/02/18 05:45:05;;;;;;;3.47;0.75;;;10.90;99.90;;;;;;4994103;28;20081;-61
2022/02/18 05:47:37;;;;;;;3.40;0.68;;;10.90;99.90;;;;;;5008921;28;20123;-60
2022/02/18 05:50:08;;;;;;;3.45;0.70;;;10.90;99.90;;;;;;5009213;28;20058;-60
2022/02/18 05:52:36;;;;;;;5.15;0.90;;;10.90;99.90;;;;;;5009995;28;20054;-61
2022/02/18 05:55:03;;;;;;;3.38;0.65;;;10.90;99.90;;;;;;5005078;28;20141;-60
2022/02/18 05:57:30;;;;;;;4.90;0.70;;;10.90;99.90;;;;;;4977122;28;20085;-62
2022/02/18 05:59:57;;;;;;;11.60;2.78;;;10.90;99.90;;;;;;4976909;28;20126;-61
2022/02/18 06:02:24;;;;;;;6.40;0.75;;;10.90;99.90;;;;;;5002770;28;20092;-61
2022/02/18 06:04:50;;;;;;;3.25;0.70;;;10.90;99.90;;;;;;5005307;28;20532;-62
2022/02/18 06:07:17;;;;;;;3.67;0.93;;;10.90;99.90;;;;;;4998305;28;20145;-62
2022/02/18 06:09:44;;;;;;;5.13;0.93;;;10.90;99.90;;;;;;4993788;28;20133;-62
2022/02/18 06:12:11;;;;;;;1.27;0.57;;;10.90;99.90;;;;;;4998616;28;20085;-63
2022/02/18 06:14:38;;;;;;;3.83;0.63;;;10.90;99.90;;;;;;5007444;28;20430;-62
2022/02/18 06:17:08;;;;;;;4.63;0.70;;;10.90;99.90;;;;;;5006713;28;20073;-62
2022/02/18 06:19:35;;;;;;;2.83;0.60;;;10.90;99.90;;;;;;4999036;28;20112;-62
2022/02/18 06:22:02;;;;;;;5.18;0.80;;;10.90;99.90;;;;;;4996093;28;20049;-62
2022/02/18 06:24:29;;;;;;;9.30;1.00;;;10.90;99.90;;;;;;5008315;28;20096;-62
2022/02/18 06:26:56;;;;;;;2.17;0.52;;;10.90;99.90;;;;;;4996292;28;20042;-62
2022/02/18 06:29:22;;;;;;;3.42;0.73;;;11.00;99.90;;;;;;5008924;28;20509;-62
2022/02/18 06:31:49;;;;;;;6.00;0.80;;;11.00;99.90;;;;;;5004287;28;20056;-62
2022/02/18 06:34:16;;;;;;;4.40;0.73;;;11.00;99.90;;;;;;4972090;28;20141;-62
2022/02/18 06:36:43;;;;;;;3.90;0.80;;;11.00;99.90;;;;;;4994363;28;20092;-62
2022/02/18 06:39:09;;;;;;;1.85;0.45;;;11.00;99.90;;;;;;5008803;28;20045;-62
2022/02/18 06:41:36;;;;;;;2.00;0.65;;;11.00;99.90;;;;;;5004468;28;20501;-62
2022/02/18 06:44:03;;;;;;;1.80;0.30;;;11.00;99.90;;;;;;4993081;28;20077;-61
2022/02/18 06:46:30;;;;;;;0.80;0.40;;;10.90;99.90;;;;;;4993074;28;20046;-63
2022/02/18 06:48:57;;;;;;;2.45;0.50;;;11.00;99.90;;;;;;5002756;28;20081;-62
2022/02/18 06:51:24;;;;;;;1.35;0.25;;;11.00;99.90;;;;;;5004084;28;20070;-62
2022/02/18 06:53:51;;;;;;;2.88;0.40;;;11.00;99.90;;;;;;4997393;28;20073;-62
2022/02/18 06:56:36;;;;;;;3.50;1.15;;;11.00;99.90;;;;;;4993017;28;20042;-61
2022/02/18 06:59:02;;;;;;;1.20;0.35;;;11.00;99.90;;;;;;5000350;28;20054;-62
2022/02/18 07:01:30;;;;;;;4.97;0.80;;;11.00;99.90;;;;;;5004177;28;20069;-62
2022/02/18 07:03:57;;;;;;;1.05;0.40;;;11.00;99.90;;;;;;4999111;28;20153;-62
2022/02/18 07:06:24;;;;;;;1.13;0.60;;;11.00;99.90;;;;;;4989636;28;20114;-62
2022/02/18 07:08:50;;;;;;;0.77;0.40;;;11.00;99.90;;;;;;4997489;28;20140;-62
2022/02/18 07:11:17;;;;;;;2.95;0.50;;;11.00;99.90;;;;;;5007675;28;20048;-63
2022/02/18 07:13:44;;;;;;;4.05;0.52;;;11.00;99.90;;;;;;5004075;28;20560;-62
2022/02/18 07:16:11;;;;;;;1.33;0.40;;;11.00;99.90;;;;;;5008192;28;20153;-63
2022/02/18 07:18:37;;;;;;;2.58;0.50;;;11.00;99.90;;;;;;4984028;28;20073;-61
2022/02/18 07:21:04;;;;;;;1.88;0.57;;;11.00;99.90;;;;;;4988865;28;20165;-61
2022/02/18 07:23:31;;;;;;;1.83;0.57;;;11.00;99.90;;;;;;4992868;28;20462;-62
2022/02/18 07:25:58;;;;;;;2.42;0.80;;;11.00;99.90;;;;;;4991269;28;20137;-62
2022/02/18 07:28:24;;;;;;;1.85;0.90;;;11.00;99.90;;;;;;5004168;28;20137;-62
2022/02/18 07:30:51;;;;;;;7.68;1.10;;;11.00;99.90;;;;;;4990492;28;20085;-62
2022/02/18 07:33:18;;;;;;;12.05;1.50;;;11.00;99.90;;;;;;4992080;28;20084;-62
2022/02/18 07:35:45;;;;;;;5.93;1.48;;;10.90;99.90;;;;;;5003641;28;20144;-62
2022/02/18 07:38:11;;;;;;;4.03;1.05;;;10.90;99.90;;;;;;5006872;28;20076;-62
2022/02/18 07:40:41;;;;;;;10.43;2.10;;;10.90;99.90;;;;;;5004928;28;20576;-61
2022/02/18 07:43:07;;;;;;;8.48;1.55;;;10.80;99.90;;;;;;4992104;28;20611;-61
2022/02/18 07:45:58;;;;;;;18.08;2.28;;;10.80;99.90;;;;;;4990493;28;20090;-61
2022/02/18 07:48:25;;;;;;;7.53;1.45;;;10.80;99.90;;;;;;4974425;28;20137;-62
2022/02/18 07:50:52;;;;;;;8.13;1.45;;;10.80;99.90;;;;;;4997014;28;20484;-61
2022/02/18 07:53:18;;;;;;;7.82;1.73;;;10.80;99.90;;;;;;4997751;28;20049;-64
2022/02/18 07:55:45;;;;;;;7.28;2.15;;;10.70;99.90;;;;;;4983064;28;20568;-62
2022/02/18 07:58:12;;;;;;;11.43;2.55;;;10.80;99.90;;;;;;4999407;28;20050;-61
2022/02/18 08:00:39;;;;;;;7.13;2.22;;;10.70;99.90;;;;;;4998940;28;20136;-62
2022/02/18 08:03:05;;;;;;;13.73;2.05;;;10.70;99.90;;;;;;4996980;28;20137;-61
2022/02/18 08:05:32;;;;;;;9.20;1.58;;;10.60;99.90;;;;;;4999007;28;20453;-60
2022/02/18 08:08:00;;;;;;;11.32;3.35;;;10.50;99.90;;;;;;5000181;28;20078;-62
2022/02/18 08:10:28;;;;;;;12.48;2.30;;;10.50;99.90;;;;;;5003212;28;20108;-62
2022/02/18 08:12:55;;;;;;;17.63;3.60;;;10.40;99.90;;;;;;5002350;28;20145;-62
2022/02/18 08:15:21;;;;;;;11.68;2.03;;;10.40;99.90;;;;;;5001468;28;20129;-62
2022/02/18 08:17:48;;;;;;;25.48;3.80;;;10.40;99.90;;;;;;4996948;28;20054;-62
2022/02/18 08:20:15;;;;;;;18.60;4.50;;;10.40;99.90;;;;;;5003479;28;20041;-61
2022/02/18 08:22:42;;;;;;;15.95;3.15;;;10.50;99.90;;;;;;5003292;28;20054;-62
2022/02/18 08:25:09;;;;;;;18.80;3.60;;;10.40;99.90;;;;;;5002238;28;20053;-62
2022/02/18 08:27:37;;;;;;;25.70;4.40;;;10.40;99.90;;;;;;4986118;28;20046;-62
2022/02/18 08:30:04;;;;;;;27.13;4.82;;;10.50;99.90;;;;;;5000105;28;20046;-62
2022/02/18 08:32:33;;;;;;;29.50;4.93;;;10.50;99.90;;;;;;5001450;28;20046;-63
2022/02/18 08:35:00;;;;;;;26.45;4.50;;;10.40;99.90;;;;;;5001807;28;20069;-63
2022/02/18 08:37:27;;;;;;;19.77;3.50;;;10.40;99.90;;;;;;5003924;28;20095;-62
2022/02/18 08:39:54;;;;;;;33.05;4.47;;;10.50;99.90;;;;;;4985273;28;20074;-63
2022/02/18 08:42:21;;;;;;;26.38;4.65;;;10.40;99.90;;;;;;5003568;28;20505;-62
2022/02/18 08:44:48;;;;;;;34.00;6.05;;;10.40;99.90;;;;;;4985991;28;20477;-64
2022/02/18 08:47:14;;;;;;;29.92;6.50;;;10.40;99.90;;;;;;4997150;28;20133;-63
2022/02/18 08:49:42;;;;;;;32.40;5.95;;;10.40;99.90;;;;;;5002759;28;20104;-62
2022/02/18 08:52:09;;;;;;;39.05;6.88;;;10.40;99.90;;;;;;4984765;28;20054;-65
2022/02/18 08:54:36;;;;;;;40.92;7.40;;;10.30;99.90;;;;;;5001975;28;20053;-63
2022/02/18 08:57:03;;;;;;;31.42;6.28;;;10.40;99.90;;;;;;4993976;28;20132;-63
2022/02/18 08:59:30;;;;;;;36.63;6.15;;;10.40;99.90;;;;;;5001084;28;20572;-63
2022/02/18 09:01:58;;;;;;;45.95;6.38;;;10.40;99.90;;;;;;4971125;28;20045;-63
2022/02/18 09:04:25;;;;;;;30.13;5.85;;;10.30;99.90;;;;;;4990146;28;20141;-63
2022/02/18 09:06:52;;;;;;;49.38;8.02;;;10.30;99.90;;;;;;5004330;28;20057;-64
2022/02/18 09:09:19;;;;;;;45.42;9.02;;;10.30;99.90;;;;;;4984118;28;20134;-63
2022/02/18 09:11:46;;;;;;;48.60;7.35;;;10.20;99.90;;;;;;5003965;28;20042;-63
2022/02/18 09:14:16;;;;;;;38.47;7.15;;;10.10;99.90;;;;;;5001183;28;20077;-63
2022/02/18 09:16:44;;;;;;;39.33;6.65;;;10.10;99.90;;;;;;4984372;28;20497;-64
2022/02/18 09:19:11;;;;;;;38.63;6.65;;;10.00;99.90;;;;;;5001115;28;20054;-62
2022/02/18 09:21:37;;;;;;;47.03;7.78;;;10.00;99.90;;;;;;4999334;28;20046;-62
2022/02/18 09:24:05;;;;;;;48.33;9.75;;;10.00;99.90;;;;;;5001320;28;20137;-62
2022/02/18 09:26:31;;;;;;;45.25;8.70;;;10.00;99.90;;;;;;4655045;28;10000292;-63
2022/02/18 09:28:58;;;;;;;47.60;7.57;;;9.90;99.90;;;;;;4998661;28;20580;-63
2022/02/18 09:31:25;;;;;;;38.83;6.85;;;9.80;99.90;;;;;;4995656;28;20142;-63
2022/02/18 09:33:52;;;;;;;40.05;6.78;;;9.70;99.90;;;;;;4981872;28;21522;-64
2022/02/18 09:36:19;;;;;;;42.78;7.28;;;9.60;99.90;;;;;;4996920;28;20138;-64
2022/02/18 09:38:46;;;;;;;56.88;6.45;;;9.50;99.90;;;;;;4998894;28;20559;-64
2022/02/18 09:41:13;;;;;;;46.00;8.25;;;9.60;99.90;;;;;;4998091;28;20145;-63
2022/02/18 09:43:41;;;;;;;47.30;5.63;;;9.60;99.90;;;;;;5001053;28;20164;-63
2022/02/18 09:46:08;;;;;;;31.23;5.70;;;9.70;99.90;;;;;;4994776;28;20500;-63
2022/02/18 09:48:38;;;;;;;37.72;6.63;;;9.80;99.90;;;;;;4996976;28;20103;-63
2022/02/18 09:51:05;;;;;;;30.75;5.72;;;9.80;99.90;;;;;;4996998;28;20145;-64
2022/02/18 09:53:34;;;;;;;42.47;6.63;;;9.90;99.50;;;;;;4996065;28;20104;-63
2022/02/18 09:56:02;;;;;;;30.27;6.13;;;10.00;99.90;;;;;;4996087;28;20050;-64
2022/02/18 09:58:29;;;;;;;38.88;6.70;;;10.00;99.90;;;;;;4995027;28;20050;-64
2022/02/18 10:00:56;;;;;;;42.13;8.88;;;10.00;99.90;;;;;;4996105;28;20133;-64
2022/02/18 10:03:23;;;;;;;37.33;7.13;;;10.00;99.90;;;;;;4995497;28;20495;-64
2022/02/18 10:05:50;;;;;;;37.88;6.88;;;10.10;99.90;;;;;;4995152;28;20460;-64
2022/02/18 10:08:18;;;;;;;37.30;6.15;;;10.10;99.80;;;;;;4995092;28;20129;-64
2022/02/18 10:11:05;;;;;;;35.30;5.90;;;10.20;99.90;;;;;;4998529;28;20077;-63
2022/02/18 10:13:36;;;;;;;42.90;7.75;;;10.20;99.70;;;;;;4994193;28;20081;-63
2022/02/18 10:16:25;;;;;;;26.42;5.55;;;10.20;99.40;;;;;;4977231;28;20054;-64
2022/02/18 10:18:56;;;;;;;29.13;6.43;;;10.00;99.20;;;;;;4995541;28;20045;-62
2022/02/18 10:21:25;;;;;;;37.70;5.82;;;9.90;99.20;;;;;;4995871;28;20042;-65
2022/02/18 10:24:04;;;;;;;29.20;5.80;;;9.90;99.30;;;;;;4977821;28;20046;-65
2022/02/18 10:26:37;;;;;;;31.42;6.38;;;9.90;99.90;;;;;;4979691;28;20133;-66
2022/02/18 10:29:07;;;;;;;32.07;5.33;;;9.90;99.10;;;;;;4998738;28;20052;-64
2022/02/18 10:31:35;;;;;;;29.30;5.05;;;9.90;97.80;;;;;;4996241;28;20628;-64
2022/02/18 10:34:03;;;;;;;26.90;5.20;;;10.00;97.70;;;;;;4977417;28;20043;-65
2022/02/18 10:36:40;;;;;;;31.85;5.53;;;10.00;97.60;;;;;;4973741;28;20767;-64
2022/02/18 10:39:28;;;;;;;28.83;5.45;;;10.10;96.80;;;;;;4996085;28;20054;-64
2022/02/18 10:41:59;;;;;;;33.58;5.65;;;10.10;97.50;;;;;;4990037;28;20093;-63
2022/02/18 10:44:32;;;;;;;33.47;5.18;;;10.00;97.40;;;;;;4973914;28;20115;-63
2022/02/18 10:47:05;;;;;;;29.83;4.70;;;10.10;98.20;;;;;;4990825;28;20058;-65
2022/02/18 10:49:36;;;;;;;34.87;6.13;;;10.10;97.90;;;;;;4989214;28;20065;-64
2022/02/18 10:52:17;;;;;;;37.65;7.13;;;10.10;97.00;;;;;;4998404;28;20049;-64
2022/02/18 10:54:45;;;;;;;47.67;11.13;;;10.20;97.00;;;;;;4995162;28;20079;-65
2022/02/18 10:57:24;;;;;;;31.80;6.35;;;10.40;95.90;;;;;;4985459;28;20120;-63
2022/02/18 10:59:52;;;;;;;42.83;6.15;;;10.50;95.20;;;;;;4988965;28;20086;-64
2022/02/18 11:02:38;;;;;;;22.60;5.15;;;10.40;93.80;;;;;;4996678;28;20054;-64
2022/02/18 11:05:25;;;;;;;26.17;5.45;;;10.50;93.70;;;;;;4998678;28;20050;-63
2022/02/18 11:07:54;;;;;;;42.83;6.53;;;10.50;94.10;;;;;;5000392;28;20408;-65
2022/02/18 11:10:35;;;;;;;40.78;5.18;;;10.60;94.90;;;;;;4982312;28;20038;-64
2022/02/18 11:13:02;;;;;;;23.42;4.70;;;10.60;94.80;;;;;;4988116;28;20181;-64
2022/02/18 11:15:29;;;;;;;35.85;7.35;;;10.60;94.20;;;;;;4976848;28;20129;-63
2022/02/18 11:17:56;;;;;;;41.80;7.70;;;10.60;94.40;;;;;;5001578;28;20266;-63
2022/02/18 11:20:23;;;;;;;37.63;7.03;;;10.60;93.40;;;;;;5000459;28;20560;-64
2022/02/18 11:22:52;;;;;;;33.38;6.07;;;10.60;94.10;;;;;;4978323;28;20050;-63
2022/02/18 11:25:20;;;;;;;23.73;4.47;;;10.60;92.90;;;;;;4981417;28;20082;-63
2022/02/18 11:27:46;;;;;;;26.77;5.82;;;10.60;93.50;;;;;;4994812;28;20734;-63
2022/02/18 11:30:13;;;;;;;37.30;7.10;;;10.60;94.40;;;;;;4994983;28;20082;-62
2022/02/18 11:33:01;;;;;;;28.77;5.40;;;10.50;95.00;;;;;;4987463;28;20082;-64
2022/02/18 11:35:45;;;;;;;32.78;5.68;;;10.50;95.20;;;;;;4988353;28;20185;-64
2022/02/18 11:38:19;;;;;;;38.65;5.97;;;10.40;94.60;;;;;;4983820;28;20070;-64
2022/02/18 11:41:00;;;;;;;20.98;4.50;;;10.40;94.40;;;;;;4976668;28;20101;-64
2022/02/18 11:43:32;;;;;;;17.67;3.78;;;10.50;91.70;;;;;;5001778;28;20129;-65
2022/02/18 11:46:01;;;;;;;23.33;5.43;;;10.50;91.90;;;;;;4995844;28;20192;-63
2022/02/18 11:48:42;;;;;;;25.70;5.35;;;10.60;91.00;;;;;;4994630;28;20073;-66
2022/02/18 11:51:25;;;;;;;52.67;8.18;;;10.50;91.50;;;;;;4996993;28;20054;-64
2022/02/18 11:53:52;;;;;;;31.70;5.13;;;10.50;92.50;;;;;;4993322;28;20082;-63
2022/02/18 11:56:41;;;;;;;27.98;5.60;;;10.50;93.20;;;;;;4981226;28;20152;-64
2022/02/18 11:59:09;;;;;;;34.85;6.55;;;10.30;93.70;;;;;;5000007;28;20085;-63
2022/02/18 12:01:59;;;;;;;46.13;5.88;;;10.40;94.70;;;;;;4994663;28;20249;-63
2022/02/18 12:04:27;;;;;;;30.50;7.13;;;10.30;94.00;;;;;;4995575;28;20135;-64
2022/02/18 12:07:15;;;;;;;31.90;5.38;;;10.40;94.30;;;;;;4996922;28;20116;-64
2022/02/18 12:09:48;;;;;;;21.45;4.93;;;10.40;93.40;;;;;;4998397;28;20046;-64
2022/02/18 12:12:22;;;;;;;28.80;5.20;;;10.40;94.30;;;;;;4998051;28;20092;-66
2022/02/18 12:14:49;;;;;;;17.42;4.05;;;10.40;93.00;;;;;;5003685;28;20141;-63
2022/02/18 12:17:18;;;;;;;21.92;4.25;;;10.40;93.50;;;;;;5003388;28;20049;-64
2022/02/18 12:19:45;;;;;;;22.65;5.07;;;10.40;93.70;;;;;;4999578;28;20137;-63
2022/02/18 12:22:12;;;;;;;35.40;4.97;;;10.40;93.30;;;;;;5005635;28;20089;-64
2022/02/18 12:25:01;;;;;;;32.85;6.53;;;10.20;94.50;;;;;;4998865;28;20059;-63
2022/02/18 12:27:31;;;;;;;25.25;5.22;;;10.30;94.90;;;;;;5002758;28;20042;-63
2022/02/18 12:30:00;;;;;;;22.25;4.15;;;10.30;94.40;;;;;;4978961;28;20081;-64
2022/02/18 12:32:27;;;;;;;22.30;3.63;;;10.30;93.80;;;;;;4993999;28;20128;-64
2022/02/18 12:35:05;;;;;;;19.15;4.00;;;10.30;93.90;;;;;;4988879;28;20054;-63
2022/02/18 12:37:33;;;;;;;23.58;5.30;;;10.30;93.90;;;;;;5005149;28;20054;-64
2022/02/18 12:40:04;;;;;;;19.05;4.72;;;10.30;94.50;;;;;;4996018;28;20162;-65
2022/02/18 12:42:31;;;;;;;12.88;2.67;;;10.30;94.40;;;;;;4976738;28;20904;-64
2022/02/18 12:44:59;;;;;;;10.48;2.42;;;10.30;93.00;;;;;;4998354;28;20050;-64
2022/02/18 12:47:28;;;;;;;10.43;2.17;;;10.20;92.70;;;;;;5000661;28;20125;-64
2022/02/18 12:49:57;;;;;;;14.93;2.28;;;10.30;93.60;;;;;;4998315;28;20077;-63
2022/02/18 12:52:30;;;;;;;9.80;2.50;;;10.30;92.60;;;;;;4993949;28;20468;-64